Olcott, NY

10:19 PM EDT on September 14, 2014 (GMT -0400)
BackBay Marina | Change Station
CLOSE
Current Station
Personal Weather Station
Location: Olcott, NY
Elevation: 240 ft
Nearby Weather Stations

Elev 240 ft 43.34 °N, 78.72 °W | Updated 14 seconds ago

Partly Cloudy
Partly Cloudy
51.2 °F
Feels Like 51.2 °F
N
5.0
Wind Variable Wind from South
Gusts 8.0 mph

Today
High -- | Low -- °F
--% Chance of Precip.
Yesterday
High -- | Low -- °F
Precip. -- in
6:53 AM 7:26 PM
Waning Gibbous, 60% visible
Pressure 30.24 in
Visibility 10.0 miles
Clouds Few 4500 ft
Dew Point 48 °F
Humidity 88%
Rainfall 0.00 in
Snow Depth Not available.
UV 0.0 out of 12
Pollen 4.10 out of 12
Air Quality Not available.
Flu Activity Not available.
METAR KIAG 150153Z 00000KT 10SM FEW045 10/08 A3023 RMK AO2 SLP240 T01000078

More Conditions Fewer Conditions

Pressure 30.24 in
Visibility 10.0 miles
Clouds Few 4500 ft
Dew Point 48 °F
Humidity 88%
Rainfall 0.00 in
Snow Depth Not available.
UV 0.0 out of 12
Pollen 4.10 out of 12
Air Quality Not available.
Flu Activity Not available.
METAR KIAG 150153Z 00000KT 10SM FEW045 10/08 A3023 RMK AO2 SLP240 T01000078

More Conditions Fewer Conditions

10-Day Weather Forecast

Almanac

Astronomy

Sep. 14, 2014 Rise Set
Actual Time 6:53 AM EDT 7:26 PM EDT
Civil Twilight 6:24 AM EDT 7:55 PM EDT
Nautical Twilight 5:50 AM EDT 8:29 PM EDT
Astronomical Twilight 5:15 AM EDT 9:04 PM EDT
Moon 11:08 PM EDT (9/14) 1:07 PM EDT (9/14)
Length of Visible Light 13h 30m
Length of Day
12h 33m
Tomorrow will be 2m 55s shorter.
Waning Gibbous, 60% of the Moon is Illuminated
Today
Waning Gibbous
Sep 15
Last Quarter
Sep 24
New
Oct 1
First Quarter
Oct 8
Full

Today's Extremes

State Highs State Lows

Community

WunderPhotos

Upload Photos

1,753,371 photos uploaded!

Nearby

Air Quality

  Air Quality AQ Index Pollutant
Sunday Good
OZONE
Sunday Good
PM2.5
Monday Good
OZONE
Monday Good
PM2.5

Snow Depth

Station Depth Elevation
No new snow has been reported.

Earthquake Activity

City Distance Mag. Time & Date
No recent earthquake activity has been reported nearby.
Minimum magnitude displayed is 2.5.

Coastal Water Temperatures

Place Temperature
Buffalo, NY 69.1 °F

Nearby Weather Stations